Time;durP1;ratioP1;P1;durP2;ratioP2;P2;SDS_P1;SDS_P2;PMS_P1;PMS_P2;Temp;Humidity;BMP_temperature;BMP_pressure;BME280_temperature;BME280_humidity;BME280_pressure;Samples;Min_cycle;Max_cycle;Signal;HPM_P1;HPM_P2
2023/04/17 00:00:43;;;;;;;6.30;3.90;;;;;;;6.35;60.15;101634.41;105739;1260;74043;-88
2023/04/17 00:03:12;;;;;;;13.00;3.80;;;;;;;6.32;60.63;101633.80;106377;1254;60460;-83
2023/04/17 00:05:44;;;;;;;5.80;3.10;;;;;;;6.28;60.80;101637.56;106795;1253;60847;-86
2023/04/17 00:08:14;;;;;;;6.90;3.60;;;;;;;6.24;61.00;101637.83;107019;1256;74825;-88
2023/04/17 00:10:42;;;;;;;9.30;4.00;;;;;;;6.20;61.29;101636.36;107956;1254;64577;-84
2023/04/17 00:13:23;;;;;;;7.40;4.20;;;;;;;6.14;61.93;101637.02;107647;1254;72610;-84
2023/04/17 00:15:51;;;;;;;6.80;3.90;;;;;;;6.11;62.10;101640.59;106911;1256;60552;-83
2023/04/17 00:18:19;;;;;;;8.70;3.50;;;;;;;6.07;62.34;101638.77;106216;1254;60844;-87
2023/04/17 00:20:47;;;;;;;13.10;5.40;;;;;;;6.04;62.66;101640.92;106161;1254;73830;-87
2023/04/17 00:23:16;;;;;;;7.10;3.60;;;;;;;6.01;63.16;101635.46;106377;1254;64864;-86
2023/04/17 00:25:44;;;;;;;10.20;4.70;;;;;;;5.97;63.23;101640.05;107299;1254;73547;-85
2023/04/17 00:28:12;;;;;;;7.20;3.60;;;;;;;5.95;63.42;101635.92;107189;1254;60444;-86
2023/04/17 00:30:41;;;;;;;6.30;3.90;;;;;;;5.93;63.67;101634.23;106660;1254;60543;-87
2023/04/17 00:33:09;;;;;;;8.90;4.30;;;;;;;5.92;64.11;101631.15;105864;1254;73746;-88
2023/04/17 00:35:38;;;;;;;7.10;4.50;;;;;;;5.88;64.60;101630.02;106167;1258;64901;-87
2023/04/17 00:38:09;;;;;;;7.50;4.40;;;;;;;5.85;64.99;101628.67;106025;1258;71911;-87
2023/04/17 00:40:37;;;;;;;8.10;4.70;;;;;;;5.82;65.18;101625.46;106120;1254;60558;-89
2023/04/17 00:43:06;;;;;;;15.10;5.10;;;;;;;5.79;65.38;101626.39;105985;1254;61341;-87
2023/04/17 00:45:34;;;;;;;11.10;5.60;;;;;;;5.76;65.62;101625.42;106022;1254;75023;-85
2023/04/17 00:48:04;;;;;;;10.60;5.10;;;;;;;5.74;66.11;101622.70;106085;1257;64807;-87
2023/04/17 00:50:32;;;;;;;13.50;5.80;;;;;;;5.72;66.37;101623.07;106156;1257;73672;-86
2023/04/17 00:53:00;;;;;;;9.80;5.00;;;;;;;5.69;66.74;101628.21;106051;1254;60552;-84
2023/04/17 00:55:29;;;;;;;12.90;5.30;;;;;;;5.63;66.90;101631.11;105896;1257;61053;-89
2023/04/17 00:57:58;;;;;;;8.10;4.80;;;;;;;5.58;67.11;101626.02;105956;1254;74764;-87
2023/04/17 01:00:26;;;;;;;10.10;5.40;;;;;;;5.54;67.27;101626.83;106035;1254;64021;-86
2023/04/17 01:02:57;;;;;;;13.60;5.30;;;;;;;5.50;67.63;101630.20;105947;1254;72563;-87
2023/04/17 01:05:26;;;;;;;12.90;5.40;;;;;;;5.46;67.87;101625.26;105912;1254;60645;-84
2023/04/17 01:07:55;;;;;;;9.10;5.10;;;;;;;5.45;67.96;101625.27;105892;1255;61387;-87
2023/04/17 01:10:24;;;;;;;7.80;4.60;;;;;;;5.43;68.26;101625.84;105995;1258;73996;-87
2023/04/17 01:13:06;;;;;;;10.60;5.50;;;;;;;5.42;68.45;101627.09;105976;1256;64844;-86
2023/04/17 01:15:35;;;;;;;11.10;4.80;;;;;;;5.40;68.72;101627.30;105817;1256;71781;-88
2023/04/17 01:18:05;;;;;;;8.50;5.50;;;;;;;5.37;68.66;101625.96;106014;1255;60570;-86
2023/04/17 01:20:33;;;;;;;7.60;4.20;;;;;;;5.35;68.94;101624.28;106009;1256;61342;-89
2023/04/17 01:23:02;;;;;;;6.60;4.50;;;;;;;5.32;69.07;101627.30;106117;1254;73782;-86
2023/04/17 01:25:30;;;;;;;9.00;4.20;;;;;;;5.28;69.38;101625.83;106548;1254;64766;-85
2023/04/17 01:28:00;;;;;;;7.50;5.00;;;;;;;5.23;69.35;101625.23;106103;1255;73668;-86
2023/04/17 01:30:31;;;;;;;9.10;4.80;;;;;;;5.20;69.46;101627.56;109093;1254;59543;-87
2023/04/17 01:33:05;;;;;;;7.80;5.00;;;;;;;5.17;69.64;101627.80;109265;1254;61335;-86
2023/04/17 01:35:34;;;;;;;7.80;4.30;;;;;;;5.17;69.56;101627.11;109499;1256;73777;-86
2023/04/17 01:38:02;;;;;;;6.80;4.00;;;;;;;5.18;69.62;101629.33;109434;1254;63746;-85
2023/04/17 01:40:30;;;;;;;9.30;4.40;;;;;;;5.18;69.55;101630.20;109479;1254;72580;-85
2023/04/17 01:42:59;;;;;;;4.50;3.80;;;;;;;5.17;69.62;101631.08;109558;1254;59183;-85
2023/04/17 01:45:28;;;;;;;8.30;3.80;;;;;;;5.16;69.60;101627.30;109617;1254;58893;-86
2023/04/17 01:47:56;;;;;;;7.30;4.30;;;;;;;5.16;69.62;101627.46;109592;1254;73478;-87
2023/04/17 01:50:26;;;;;;;9.20;3.90;;;;;;;5.15;69.82;101625.06;109573;1257;64449;-86
2023/04/17 01:52:55;;;;;;;5.80;3.50;;;;;;;5.14;69.86;101626.14;109611;1254;72601;-84
2023/04/17 01:55:23;;;;;;;10.00;3.50;;;;;;;5.14;69.80;101628.39;107104;1258;60438;-86
2023/04/17 01:57:52;;;;;;;7.50;3.20;;;;;;;5.12;69.77;101631.52;106137;1258;60455;-86
2023/04/17 02:00:21;;;;;;;8.20;3.20;;;;;;;5.10;69.69;101626.38;106510;1257;73758;-87
2023/04/17 02:02:50;;;;;;;8.40;3.40;;;;;;;5.09;69.79;101629.70;106098;1258;64881;-86
2023/04/17 02:05:18;;;;;;;6.70;3.40;;;;;;;5.07;69.49;101629.56;106114;1257;71963;-88
2023/04/17 02:07:50;;;;;;;6.00;3.70;;;;;;;5.06;69.52;101628.55;106084;1254;60461;-85
2023/04/17 02:10:18;;;;;;;8.30;3.60;;;;;;;5.04;69.61;101632.06;105810;1256;60632;-89
2023/04/17 02:12:47;;;;;;;8.90;3.60;;;;;;;5.00;69.67;101631.09;106038;1256;74736;-87
2023/04/17 02:15:15;;;;;;;5.60;3.50;;;;;;;4.96;69.84;101632.22;105895;1255;63577;-88
2023/04/17 02:17:45;;;;;;;7.20;4.10;;;;;;;4.93;69.99;101634.01;105991;1258;73617;-88
2023/04/17 02:20:14;;;;;;;8.90;4.30;;;;;;;4.90;70.04;101635.11;105786;1259;60356;-87
2023/04/17 02:22:42;;;;;;;7.20;4.00;;;;;;;4.88;70.15;101631.34;105947;1255;60536;-85
2023/04/17 02:25:11;;;;;;;5.80;4.00;;;;;;;4.86;70.21;101633.29;105905;1258;74803;-85
2023/04/17 02:27:39;;;;;;;5.90;3.40;;;;;;;4.84;70.47;101631.08;106007;1256;63950;-85
2023/04/17 02:30:08;;;;;;;7.80;5.20;;;;;;;4.81;70.70;101630.44;105922;1259;73620;-89
2023/04/17 02:32:38;;;;;;;11.40;3.70;;;;;;;4.81;70.79;101633.56;106071;1255;60659;-85
2023/04/17 02:35:07;;;;;;;7.00;3.20;;;;;;;4.81;71.10;101623.86;106011;1259;60397;-85
2023/04/17 02:37:36;;;;;;;7.90;3.80;;;;;;;4.80;71.25;101624.40;106063;1258;74477;-87
2023/04/17 02:40:06;;;;;;;10.20;4.90;;;;;;;4.81;71.34;101622.30;105789;1257;63935;-86
2023/04/17 02:42:35;;;;;;;6.80;3.80;;;;;;;4.81;71.79;101623.51;106131;1257;73554;-87
2023/04/17 02:45:04;;;;;;;7.50;4.00;;;;;;;4.84;71.55;101623.11;106118;1254;60449;-85
2023/04/17 02:47:32;;;;;;;4.80;3.30;;;;;;;4.87;71.18;101628.77;106215;1256;60396;-87
2023/04/17 02:50:00;;;;;;;7.90;3.00;;;;;;;4.88;71.07;101627.35;106045;1254;73776;-88
2023/04/17 02:52:32;;;;;;;6.70;3.70;;;;;;;4.87;70.80;101628.74;106371;1254;64443;-85
2023/04/17 02:55:00;;;;;;;14.30;3.50;;;;;;;4.87;70.66;101631.19;107046;1257;73631;-85
2023/04/17 02:57:29;;;;;;;6.10;3.70;;;;;;;4.85;70.72;101628.82;107611;1262;60502;-86
2023/04/17 03:00:00;;;;;;;8.00;5.30;;;;;;;4.82;70.66;101628.16;108025;1255;60434;-86
2023/04/17 03:02:31;;;;;;;6.90;3.70;;;;;;;4.80;70.88;101625.95;109371;1256;73694;-85
2023/04/17 03:05:00;;;;;;;9.10;3.90;;;;;;;4.78;71.07;101628.95;108577;1254;63869;-85
2023/04/17 03:07:30;;;;;;;5.50;3.50;;;;;;;4.76;71.09;101627.77;109455;1259;72675;-88
2023/04/17 03:09:59;;;;;;;14.80;3.90;;;;;;;4.75;71.08;101629.68;109511;1254;59269;-87
2023/04/17 03:12:28;;;;;;;10.50;4.50;;;;;;;4.74;71.32;101632.30;109577;1254;61091;-86
2023/04/17 03:14:59;;;;;;;6.80;3.40;;;;;;;4.73;71.46;101631.98;109529;1254;73791;-86
2023/04/17 03:17:28;;;;;;;8.20;4.90;;;;;;;4.72;71.22;101627.50;109469;1253;63780;-85
2023/04/17 03:19:57;;;;;;;10.40;3.70;;;;;;;4.70;71.41;101625.27;109392;1254;72564;-84
2023/04/17 03:22:26;;;;;;;7.60;3.50;;;;;;;4.69;71.59;101623.05;108022;1255;60512;-85
2023/04/17 03:24:54;;;;;;;7.60;3.50;;;;;;;4.67;71.62;101621.88;106317;1259;61304;-83
2023/04/17 03:27:25;;;;;;;6.80;3.80;;;;;;;4.67;71.42;101622.23;106263;1257;73967;-84
2023/04/17 03:29:57;;;;;;;6.40;3.40;;;;;;;4.69;71.73;101621.50;105974;1256;63836;-87
2023/04/17 03:32:25;;;;;;;5.70;3.60;;;;;;;4.71;71.59;101621.81;106400;1254;72681;-82
2023/04/17 03:34:56;;;;;;;6.20;3.40;;;;;;;4.72;71.36;101622.83;107701;1258;60230;-85
2023/04/17 03:37:25;;;;;;;5.30;3.20;;;;;;;4.72;71.44;101615.21;106509;1258;60387;-85
2023/04/17 03:39:54;;;;;;;6.40;2.80;;;;;;;4.76;71.14;101624.64;106078;1254;74850;-86
2023/04/17 03:42:27;;;;;;;8.50;3.20;;;;;;;4.77;71.16;101628.08;106160;1256;64626;-83
2023/04/17 03:44:55;;;;;;;6.80;2.90;;;;;;;4.79;70.95;101631.36;106065;1260;73532;-83
2023/04/17 03:47:27;;;;;;;5.20;2.70;;;;;;;4.83;70.87;101636.65;106018;1257;60454;-85
2023/04/17 03:49:56;;;;;;;10.70;3.90;;;;;;;4.92;70.58;101633.69;106330;1255;61650;-85
2023/04/17 03:52:29;;;;;;;6.80;3.60;;;;;;;5.08;70.14;101631.80;107130;1256;74578;-83
2023/04/17 03:54:59;;;;;;;9.50;3.20;;;;;;;5.24;69.33;101635.64;106847;1259;63787;-87
2023/04/17 03:57:28;;;;;;;7.40;3.50;;;;;;;5.38;68.25;101630.81;105978;1257;73346;-86
2023/04/17 03:59:57;;;;;;;4.50;3.20;;;;;;;5.52;68.13;101630.85;105890;1255;60552;-82
2023/04/17 04:02:25;;;;;;;10.00;3.60;;;;;;;5.66;67.59;101624.63;105872;1259;61262;-86
2023/04/17 04:04:55;;;;;;;5.70;2.80;;;;;;;5.83;67.03;101634.48;105850;1255;74803;-85
2023/04/17 04:07:25;;;;;;;8.30;3.00;;;;;;;6.02;66.07;101639.23;106232;1255;63129;-84
2023/04/17 04:09:54;;;;;;;4.50;2.40;;;;;;;6.21;65.16;101645.54;106311;1257;72603;-82
2023/04/17 04:12:23;;;;;;;3.80;2.70;;;;;;;6.36;63.80;101652.44;105937;1254;60430;-86
2023/04/17 04:14:51;;;;;;;10.30;2.30;;;;;;;6.54;62.73;101651.64;105832;1259;61345;-85
2023/04/17 04:17:20;;;;;;;5.60;2.40;;;;;;;6.75;60.62;101650.73;105540;1259;276178;-85
2023/04/17 04:21:52;;;;;;;6.90;2.90;;;;;;;7.02;57.84;101648.90;102630;1295;603927;-85
2023/04/17 04:24:20;;;;;;;4.40;2.50;;;;;;;7.11;56.95;101644.14;105411;1263;60350;-85
2023/04/17 04:26:48;;;;;;;5.50;2.50;;;;;;;7.15;57.17;101641.60;105259;1263;61370;-85
2023/04/17 04:29:16;;;;;;;4.30;2.80;;;;;;;7.23;56.45;101647.61;105317;1262;73233;-86
2023/04/17 04:31:52;;;;;;;3.50;2.20;;;;;;;7.33;55.30;101648.54;105567;1260;65859;-86
2023/04/17 04:34:24;;;;;;;12.30;2.90;;;;;;;7.40;53.81;101648.49;105520;1258;272500;-85
2023/04/17 04:36:51;;;;;;;4.20;2.30;;;;;;;7.50;53.64;101644.56;106055;1256;60278;-86
2023/04/17 04:39:28;;;;;;;9.40;2.70;;;;;;;7.68;53.15;101635.81;106701;1256;60887;-83
2023/04/17 04:41:55;;;;;;;6.30;3.40;;;;;;;7.89;52.97;101629.38;108267;1256;73268;-84
2023/04/17 04:44:25;;;;;;;8.10;3.40;;;;;;;8.19;51.82;101625.45;106603;1256;64887;-85
2023/04/17 04:46:55;;;;;;;3.90;2.40;;;;;;;8.45;50.61;101625.96;105819;1262;73296;-88
2023/04/17 04:49:22;;;;;;;5.70;2.40;;;;;;;8.73;50.15;101627.60;105786;1257;60070;-85
2023/04/17 04:51:50;;;;;;;5.30;2.60;;;;;;;9.08;48.71;101629.98;105828;1255;60428;-84
2023/04/17 04:54:17;;;;;;;15.00;3.40;;;;;;;9.48;47.90;101633.34;105783;1260;73705;-86
2023/04/17 04:56:49;;;;;;;8.30;3.00;;;;;;;9.89;46.48;101625.27;105800;1260;65367;-84
2023/04/17 04:59:17;;;;;;;5.40;2.90;;;;;;;10.16;45.75;101625.00;106179;1257;72883;-85
2023/04/17 05:01:49;;;;;;;7.90;2.70;;;;;;;10.37;45.09;101617.51;105833;1258;59955;-87
2023/04/17 05:04:20;;;;;;;8.30;2.80;;;;;;;10.48;44.09;101614.42;106046;1258;60313;-86
2023/04/17 05:06:49;;;;;;;9.00;3.50;;;;;;;10.43;43.85;101612.88;106699;1256;73947;-83
2023/04/17 05:09:16;;;;;;;5.40;3.00;;;;;;;10.24;43.79;101615.75;108649;1256;63827;-84
2023/04/17 05:11:52;;;;;;;8.00;3.00;;;;;;;10.02;44.16;101605.67;106523;1260;73484;-84
2023/04/17 05:14:20;;;;;;;7.00;3.30;;;;;;;10.03;44.66;101598.82;106475;1256;60136;-86
2023/04/17 05:16:48;;;;;;;6.10;3.00;;;;;;;10.22;44.02;101601.33;105833;1260;60222;-86
2023/04/17 05:19:15;;;;;;;3.70;2.60;;;;;;;10.43;43.41;101595.21;106021;1259;73821;-86
2023/04/17 05:21:50;;;;;;;6.20;2.90;;;;;;;10.57;42.65;101600.53;105846;1256;63826;-87
2023/04/17 05:24:17;;;;;;;6.70;3.10;;;;;;;10.54;42.64;101600.31;105728;1256;72643;-86
2023/04/17 05:26:44;;;;;;;8.50;3.50;;;;;;;10.44;42.68;101602.36;105887;1262;61210;-85
2023/04/17 05:29:13;;;;;;;6.10;2.90;;;;;;;10.43;42.72;101606.42;105938;1256;60252;-87
2023/04/17 05:31:40;;;;;;;7.00;3.70;;;;;;;10.42;42.58;101610.49;106362;1256;73116;-84
2023/04/17 05:34:14;;;;;;;6.40;3.20;;;;;;;10.37;42.11;101617.51;107015;1260;64128;-83
2023/04/17 05:36:45;;;;;;;6.70;2.90;;;;;;;10.28;42.17;101619.78;106970;1256;72849;-85
2023/04/17 05:39:13;;;;;;;10.90;4.50;;;;;;;10.25;42.39;101616.22;106884;1256;60561;-86
2023/04/17 05:41:42;;;;;;;4.80;2.80;;;;;;;10.30;42.62;101619.02;106355;1256;61337;-89
2023/04/17 05:44:11;;;;;;;8.20;3.70;;;;;;;10.37;42.36;101611.73;106327;1259;72931;-90
2023/04/17 05:46:44;;;;;;;10.90;4.60;;;;;;;10.39;41.40;101615.85;106334;1257;64881;-87
2023/04/17 05:49:12;;;;;;;7.90;4.30;;;;;;;10.35;41.47;101612.16;106466;1259;72678;-88
2023/04/17 05:51:42;;;;;;;8.20;4.40;;;;;;;10.31;41.60;101611.98;106569;1264;60229;-87
2023/04/17 05:54:10;;;;;;;8.80;3.80;;;;;;;10.33;40.33;101620.98;106331;1253;60267;-89
2023/04/17 05:56:38;;;;;;;4.20;3.00;;;;;;;10.29;40.36;101615.37;106487;1253;72914;-83
2023/04/17 05:59:05;;;;;;;7.00;4.20;;;;;;;10.26;39.57;101610.77;106584;1253;63659;-87
2023/04/17 06:01:36;;;;;;;8.60;3.00;;;;;;;10.26;39.51;101613.57;106563;1258;72493;-87
2023/04/17 06:04:03;;;;;;;7.80;3.10;;;;;;;10.26;39.41;101612.18;106328;1253;60479;-87
2023/04/17 06:06:31;;;;;;;6.00;2.60;;;;;;;10.32;38.88;101618.94;106101;1257;60001;-87
2023/04/17 06:08:58;;;;;;;14.60;4.50;;;;;;;10.37;38.20;101623.09;106082;1260;74291;-87
2023/04/17 06:11:24;;;;;;;5.80;2.80;;;;;;;10.45;38.10;101620.80;106782;1257;64700;-88
2023/04/17 06:13:52;;;;;;;4.60;3.00;;;;;;;10.60;37.77;101625.05;106501;1253;73846;-87
2023/04/17 06:16:20;;;;;;;6.00;3.20;;;;;;;10.76;37.31;101619.96;106080;1253;60208;-86
2023/04/17 06:18:48;;;;;;;11.60;3.30;;;;;;;10.93;36.90;101623.60;105885;1257;60162;-85
2023/04/17 06:21:15;;;;;;;9.20;2.60;;;;;;;11.12;36.48;101620.78;106061;1253;74591;-88
2023/04/17 06:23:42;;;;;;;7.60;3.70;;;;;;;11.33;36.33;101615.12;106411;1258;64635;-88
2023/04/17 06:26:11;;;;;;;5.60;2.90;;;;;;;11.50;35.66;101620.05;106378;1254;72668;-86
2023/04/17 06:28:39;;;;;;;6.50;2.80;;;;;;;11.62;35.44;101608.83;106018;1258;59952;-85
2023/04/17 06:31:06;;;;;;;5.90;3.00;;;;;;;11.79;35.46;101616.73;105918;1258;60212;-88
2023/04/17 06:33:33;;;;;;;5.40;2.30;;;;;;;12.05;35.03;101614.24;105944;1259;74195;-84
2023/04/17 06:36:00;;;;;;;4.90;2.40;;;;;;;12.32;34.13;101612.71;106063;1257;64555;-86
2023/04/17 06:38:34;;;;;;;5.20;2.20;;;;;;;12.69;33.91;101618.52;105977;1253;72874;-86
2023/04/17 06:41:01;;;;;;;5.60;1.80;;;;;;;13.08;33.38;101619.74;105994;1254;61028;-85
2023/04/17 06:43:29;;;;;;;5.70;2.30;;;;;;;13.44;32.89;101615.90;105881;1253;61270;-86
2023/04/17 06:45:56;;;;;;;7.30;2.30;;;;;;;13.72;32.29;101612.20;106077;1255;74595;-84
2023/04/17 06:48:23;;;;;;;10.00;2.20;;;;;;;13.95;31.15;101603.67;106167;1257;63576;-86
2023/04/17 06:50:50;;;;;;;4.30;2.60;;;;;;;14.21;31.27;101605.52;106503;1256;73421;-87
2023/04/17 06:53:17;;;;;;;7.40;2.80;;;;;;;14.59;31.40;101597.90;107510;1253;61304;-85
2023/04/17 06:55:44;;;;;;;5.60;2.40;;;;;;;15.10;31.03;101592.98;106884;1258;60118;-88
2023/04/17 06:58:11;;;;;;;9.50;2.50;;;;;;;15.62;30.51;101583.13;106252;1253;72961;-85
2023/04/17 07:00:38;;;;;;;5.70;2.40;;;;;;;16.07;29.47;101592.52;106107;1259;63730;-87
2023/04/17 07:03:05;;;;;;;6.80;2.70;;;;;;;16.44;28.15;101594.77;106345;1258;73312;-85
2023/04/17 07:05:33;;;;;;;4.50;2.00;;;;;;;16.74;27.24;101591.09;106425;1253;60151;-88
2023/04/17 07:08:00;;;;;;;4.00;2.00;;;;;;;16.91;27.06;101587.27;106134;1253;60877;-84
2023/04/17 07:10:27;;;;;;;4.00;1.90;;;;;;;17.09;26.70;101587.04;106167;1256;74083;-86
2023/04/17 07:12:54;;;;;;;4.80;2.40;;;;;;;17.24;26.77;101581.73;106110;1255;64027;-89
2023/04/17 07:15:21;;;;;;;5.80;1.70;;;;;;;17.48;26.53;101575.16;106043;1254;73598;-88
2023/04/17 07:17:48;;;;;;;4.20;1.90;;;;;;;17.83;26.47;101578.38;105998;1257;61210;-87
2023/04/17 07:20:15;;;;;;;6.20;2.20;;;;;;;18.24;25.28;101582.79;105864;1266;60098;-88
2023/04/17 07:22:42;;;;;;;7.20;2.00;;;;;;;18.50;24.86;101578.45;105906;1257;74172;-85
2023/04/17 07:25:09;;;;;;;3.20;2.00;;;;;;;18.68;24.33;101572.60;105989;1256;64301;-87
2023/04/17 07:27:38;;;;;;;2.60;1.40;;;;;;;18.89;24.87;101565.98;106089;1253;73691;-88
2023/04/17 07:30:06;;;;;;;6.30;2.10;;;;;;;19.25;25.21;101562.53;106203;1254;61142;-86
2023/04/17 07:32:34;;;;;;;6.50;2.10;;;;;;;19.71;24.19;101562.33;106758;1253;61266;-87
2023/04/17 07:35:01;;;;;;;5.80;1.40;;;;;;;20.08;23.79;101556.21;106215;1260;72874;-86
2023/04/17 07:37:29;;;;;;;4.50;1.40;;;;;;;20.43;22.95;101558.69;106468;1254;64019;-89
2023/04/17 07:39:56;;;;;;;4.60;1.60;;;;;;;20.77;22.64;101559.73;106423;1259;73297;-88
2023/04/17 07:42:23;;;;;;;4.10;1.30;;;;;;;20.74;22.37;101552.16;107680;1254;60369;-88
2023/04/17 07:44:50;;;;;;;2.90;1.60;;;;;;;20.75;22.64;101553.98;106991;1256;60282;-89
2023/04/17 07:47:17;;;;;;;5.90;1.60;;;;;;;20.67;21.54;101546.33;106937;1256;75048;-90
2023/04/17 07:49:47;;;;;;;5.90;1.50;;;;;;;20.40;21.95;101538.90;106178;1259;62962;-86
2023/04/17 07:52:16;;;;;;;4.70;2.00;;;;;;;20.35;21.76;101541.35;106063;1257;72758;-86
2023/04/17 07:54:43;;;;;;;6.40;2.10;;;;;;;20.54;21.97;101531.15;105972;1258;61076;-90
2023/04/17 07:57:11;;;;;;;6.10;2.90;;;;;;;20.85;21.76;101531.26;105996;1253;61283;-86
2023/04/17 07:59:38;;;;;;;3.10;1.80;;;;;;;21.11;21.69;101530.69;106083;1257;72955;-88
2023/04/17 08:02:05;;;;;;;3.00;1.50;;;;;;;21.20;21.64;101514.74;106034;1258;65901;-88
2023/04/17 08:04:36;;;;;;;4.50;1.50;;;;;;;21.34;21.85;101504.61;106148;1257;73895;-84
2023/04/17 08:07:04;;;;;;;6.80;1.80;;;;;;;21.55;21.22;101512.36;106035;1257;61220;-89
2023/04/17 08:09:30;;;;;;;11.20;1.60;;;;;;;21.74;21.16;101504.52;105964;1260;60969;-86
2023/04/17 08:11:57;;;;;;;5.60;1.60;;;;;;;21.82;20.35;101508.41;105988;1257;73826;-86
2023/04/17 08:14:24;;;;;;;6.00;1.60;;;;;;;21.64;20.45;101492.11;106004;1261;63931;-88
2023/04/17 08:16:52;;;;;;;2.60;1.20;;;;;;;21.59;20.98;101493.03;106028;1257;74106;-88
2023/04/17 08:19:19;;;;;;;7.30;1.00;;;;;;;21.67;20.20;101496.35;106070;1257;62190;-85
2023/04/17 08:21:49;;;;;;;2.80;1.10;;;;;;;21.58;19.57;101494.21;105898;1254;61691;-85
2023/04/17 08:24:16;;;;;;;6.70;1.70;;;;;;;21.43;19.81;101488.28;106099;1262;73859;-88
2023/04/17 08:26:46;;;;;;;2.70;1.40;;;;;;;21.38;20.22;101488.97;106154;1254;63748;-86
2023/04/17 08:29:13;;;;;;;8.30;1.50;;;;;;;21.50;20.61;101485.51;106543;1253;74276;-87
2023/04/17 08:31:41;;;;;;;3.90;1.30;;;;;;;21.78;20.27;101488.59;105960;1259;60472;-88
2023/04/17 08:34:08;;;;;;;5.60;1.70;;;;;;;22.02;19.81;101492.48;105960;1256;61532;-84
2023/04/17 08:36:41;;;;;;;;;;;;;;;22.00;19.71;101486.38;106056;1257;74346;-85
2023/04/17 08:39:10;;;;;;;6.30;1.60;;;;;;;21.88;19.98;101480.39;106302;1254;65072;-86
2023/04/17 08:41:53;;;;;;;5.90;1.20;;;;;;;21.88;20.39;101475.42;106021;1256;72596;-87
2023/04/17 08:44:20;;;;;;;5.00;1.60;;;;;;;22.16;20.65;101471.48;106115;1256;60576;-86
2023/04/17 08:46:47;;;;;;;2.30;1.50;;;;;;;22.48;20.31;101475.05;106061;1264;62076;-86
2023/04/17 08:49:15;;;;;;;3.50;1.40;;;;;;;22.48;20.50;101469.92;106090;1260;72350;-88
2023/04/17 08:51:42;;;;;;;3.50;1.10;;;;;;;22.50;19.97;101469.36;106092;1257;64962;-85
2023/04/17 08:54:09;;;;;;;6.00;1.50;;;;;;;22.50;20.25;101457.05;106090;1257;73623;-84
2023/04/17 08:56:36;;;;;;;7.00;1.10;;;;;;;22.47;20.06;101456.31;106294;1257;61237;-87
2023/04/17 08:59:03;;;;;;;4.40;1.50;;;;;;;22.47;20.05;101455.95;106098;1255;61429;-86
2023/04/17 09:01:33;;;;;;;7.50;1.40;;;;;;;22.50;19.66;101452.35;106934;1256;73641;-86
2023/04/17 09:04:03;;;;;;;3.10;1.50;;;;;;;22.64;20.06;101442.86;106954;1254;63814;-85
2023/04/17 09:06:48;;;;;;;3.90;1.00;;;;;;;22.75;19.67;101451.38;107074;1252;72145;-84
2023/04/17 09:09:15;;;;;;;1.10;1.00;;;;;;;22.61;19.58;101434.95;106317;1257;60635;-85
2023/04/17 09:11:42;;;;;;;2.00;1.50;;;;;;;22.60;19.90;101438.40;106163;1257;62248;-86
2023/04/17 09:14:32;;;;;;;1.50;1.00;;;;;;;22.57;19.68;101413.90;106236;1256;74754;-85
2023/04/17 09:16:59;;;;;;;3.50;1.20;;;;;;;22.55;19.73;101423.92;106036;1254;64668;-86
2023/04/17 09:19:26;;;;;;;5.50;1.20;;;;;;;22.57;19.24;101418.54;105942;1253;72431;-86
2023/04/17 09:21:53;;;;;;;11.10;1.40;;;;;;;22.57;19.11;101410.75;105928;1258;60442;-86
2023/04/17 09:24:34;;;;;;;3.50;1.50;;;;;;;22.61;18.87;101406.61;106144;1253;61405;-88
2023/04/17 09:27:22;;;;;;;4.50;1.00;;;;;;;22.82;18.83;101403.68;106415;1254;74763;-86
2023/04/17 09:30:03;;;;;;;3.60;1.00;;;;;;;23.14;19.07;101398.52;106774;1257;63662;-86
2023/04/17 09:32:32;;;;;;;5.90;1.30;;;;;;;23.58;18.44;101402.24;106142;1257;73604;-86
2023/04/17 09:35:00;;;;;;;5.90;1.20;;;;;;;23.76;17.91;101397.86;105926;1259;60587;-88
2023/04/17 09:37:47;;;;;;;4.60;1.10;;;;;;;23.76;17.24;101396.42;106089;1254;61276;-86
2023/04/17 09:40:14;;;;;;;4.40;1.10;;;;;;;23.58;16.74;101391.48;106016;1257;73930;-87
2023/04/17 09:42:55;;;;;;;4.00;1.40;;;;;;;23.37;17.07;101387.59;106069;1258;63542;-86
2023/04/17 09:45:23;;;;;;;8.00;1.10;;;;;;;23.31;17.23;101384.45;105925;1254;73666;-83
2023/04/17 09:47:54;;;;;;;4.50;1.00;;;;;;;23.21;17.38;101377.48;106066;1259;61118;-86
2023/04/17 09:50:23;;;;;;;5.50;1.10;;;;;;;23.08;17.51;101378.17;106053;1254;61244;-86
2023/04/17 09:52:51;;;;;;;7.90;1.40;;;;;;;22.98;17.99;101380.42;105986;1254;74634;-87
2023/04/17 09:55:22;;;;;;;5.70;1.00;;;;;;;23.03;17.38;101371.58;106274;1254;63953;-84
2023/04/17 09:57:55;;;;;;;8.30;1.00;;;;;;;23.06;17.42;101371.08;106217;1253;73193;-86
2023/04/17 10:00:26;;;;;;;4.30;0.80;;;;;;;22.87;17.50;101369.65;106335;1260;61172;-87
2023/04/17 10:02:55;;;;;;;3.70;0.90;;;;;;;22.70;17.76;101362.32;106350;1259;60525;-87
2023/04/17 10:05:27;;;;;;;6.20;0.80;;;;;;;22.73;17.21;101368.89;107323;1256;75277;-85
2023/04/17 10:07:55;;;;;;;3.70;1.20;;;;;;;22.62;17.76;101356.92;108304;1257;64694;-85
2023/04/17 10:10:32;;;;;;;4.70;0.80;;;;;;;22.45;17.76;101360.44;108596;1253;72652;-84
2023/04/17 10:13:06;;;;;;;5.60;1.10;;;;;;;22.40;17.08;101362.89;107624;1254;60550;-86
2023/04/17 10:15:36;;;;;;;8.20;0.90;;;;;;;22.28;17.53;101355.12;106599;1254;61311;-88
2023/04/17 10:18:23;;;;;;;4.60;1.10;;;;;;;22.24;17.76;101355.47;106331;1254;74616;-85
2023/04/17 10:20:52;;;;;;;3.20;1.00;;;;;;;22.47;17.89;101363.07;108567;1254;63816;-85
2023/04/17 10:23:33;;;;;;;2.70;0.80;;;;;;;22.49;17.53;101361.77;109349;1259;72559;-85
2023/04/17 10:26:34;;;;;;;3.60;0.80;;;;;;;22.52;17.72;101349.91;109274;1253;60331;-85
2023/04/17 10:29:01;;;;;;;4.20;0.80;;;;;;;22.66;17.37;101357.27;109301;1253;60312;-84
2023/04/17 10:32:06;;;;;;;1.90;1.00;;;;;;;22.72;17.39;101347.92;109636;1253;73787;-86
2023/04/17 10:34:34;;;;;;;1.90;0.80;;;;;;;22.77;17.41;101349.41;109442;1253;62689;-86
2023/04/17 10:37:03;;;;;;;5.90;0.90;;;;;;;22.74;17.36;101367.20;109328;1253;72423;-85
2023/04/17 10:39:54;;;;;;;2.00;0.70;;;;;;;22.59;17.44;101357.83;108980;1253;60427;-83
2023/04/17 10:42:22;;;;;;;5.60;1.20;;;;;;;22.47;17.53;101343.75;107778;1253;60884;-83
2023/04/17 10:44:51;;;;;;;3.00;0.50;;;;;;;22.38;17.46;101348.13;108614;1256;73710;-86
2023/04/17 10:47:20;;;;;;;6.10;1.00;;;;;;;22.44;17.88;101341.77;106443;1259;65602;-84
2023/04/17 10:49:59;;;;;;;3.40;1.20;;;;;;;22.70;17.46;101335.61;106186;1254;73699;-85
2023/04/17 10:52:40;;;;;;;6.30;1.70;;;;;;;22.78;17.61;101331.16;106694;1253;60510;-87
2023/04/17 10:55:16;;;;;;;3.30;0.70;;;;;;;22.85;17.69;101324.39;106183;1254;61415;-87
2023/04/17 10:58:11;;;;;;;5.60;1.20;;;;;;;22.94;17.22;101336.97;106104;1256;74304;-87
2023/04/17 11:00:53;;;;;;;4.80;1.00;;;;;;;22.82;17.03;101323.08;106068;1256;63936;-84
2023/04/17 11:03:26;;;;;;;4.30;1.50;;;;;;;22.71;17.40;101320.61;106177;1254;72469;-86
2023/04/17 11:05:54;;;;;;;2.60;0.80;;;;;;;22.65;17.19;101334.52;105904;1254;60607;-85
2023/04/17 11:08:22;;;;;;;3.70;1.10;;;;;;;22.53;17.21;101323.45;105849;1254;61364;-85
2023/04/17 11:10:55;;;;;;;3.20;1.00;;;;;;;22.44;17.58;101324.58;106045;1257;73455;-84
2023/04/17 11:13:22;;;;;;;4.00;1.40;;;;;;;22.42;17.85;101320.67;106248;1254;65318;-84
2023/04/17 11:15:49;;;;;;;6.50;0.90;;;;;;;22.45;17.82;101318.51;106022;1254;72689;-84
2023/04/17 11:18:17;;;;;;;2.00;1.40;;;;;;;22.56;18.01;101320.98;105944;1254;61366;-86
2023/04/17 11:20:44;;;;;;;8.70;2.40;;;;;;;22.60;18.18;101319.54;105865;1257;60369;-86
2023/04/17 11:23:12;;;;;;;4.10;1.40;;;;;;;22.70;17.84;101315.15;105847;1260;74760;-85
2023/04/17 11:25:40;;;;;;;7.40;3.90;;;;;;;22.83;17.58;101315.26;106116;1257;64502;-87
2023/04/17 11:28:07;;;;;;;6.10;4.70;;;;;;;22.90;16.96;101317.45;106092;1257;73835;-88
2023/04/17 11:30:37;;;;;;;8.70;5.20;;;;;;;22.83;16.22;101310.27;106007;1255;61402;-87
2023/04/17 11:33:10;;;;;;;7.20;3.80;;;;;;;22.63;16.64;101297.15;106364;1252;60446;-87